Private Wetterstation Grnau im Almtal
www.gruenau.tv

Wetterdaten: aktuell Samstag, 02.12.2023 16:40
Datum Zeit Temperatur Temp. min Temp. max Luftfeuchte Luftdruck Regen Wind Richtung Richtung Sonne ET UV Solar Taupunkt Windchill Windben
02.12.2023 16:40 -1,2 C -1,2 C -1,1 C 93 % 1009,5 hPa 0,6 l/m 0,0 km/h (0 Bft) NW 322 0 min 0,000 mm 0,0 UV-I 0 W/m -2,2 C -1,2 C 0,0 km/h (0 Bft)
02.12.2023 15:40 -0,8 C -0,8 C -0,7 C 95 % 1008,1 hPa 0,8 l/m 0,0 km/h (0 Bft) NW 322 0 min 0,000 mm 0,0 UV-I 0 W/m -1,5 C -0,8 C 0,0 km/h (0 Bft)
02.12.2023 14:40 -0,9 C -1,0 C -0,9 C 94 % 1006,6 hPa 0,2 l/m 0,0 km/h (0 Bft) NW 322 0 min 0,000 mm 0,0 UV-I 7 W/m -1,7 C -0,9 C 0,0 km/h (0 Bft)
02.12.2023 13:40 -1,1 C -1,2 C -1,1 C 94 % 1005,2 hPa 0,6 l/m 0,0 km/h (0 Bft) NW 322 0 min 0,000 mm 0,0 UV-I 7 W/m -1,9 C -1,1 C 0,0 km/h (0 Bft)
02.12.2023 12:40 -1,1 C -1,1 C -1,0 C 94 % 1004,9 hPa 0,4 l/m 0,0 km/h (0 Bft) NW 322 0 min 0,000 mm 0,0 UV-I 9 W/m -1,9 C -1,1 C 0,0 km/h (0 Bft)
02.12.2023 11:40 -1,1 C -1,1 C -1,1 C 95 % 1003,9 hPa 0,4 l/m 0,0 km/h (0 Bft) NW 322 0 min 0,000 mm 0,0 UV-I 12 W/m -1,8 C -1,1 C 0,0 km/h (0 Bft)
02.12.2023 10:40 -1,1 C -1,1 C -1,0 C 94 % 1003,5 hPa 0,2 l/m 0,0 km/h (0 Bft) NW 322 0 min 0,000 mm 0,0 UV-I 5 W/m -1,9 C -1,1 C 0,0 km/h (0 Bft)
02.12.2023 09:40 -1,0 C -1,1 C -1,0 C 95 % 1003,1 hPa 0,2 l/m 0,0 km/h (0 Bft) NW 322 0 min 0,000 mm 0,0 UV-I 7 W/m -1,7 C -1,0 C 0,0 km/h (0 Bft)
02.12.2023 08:40 -1,1 C -1,1 C -1,0 C 95 % 1002,8 hPa 0,8 l/m 0,0 km/h (0 Bft) NW 322 0 min 0,000 mm 0,0 UV-I 0 W/m -1,8 C -1,1 C 0,0 km/h (0 Bft)
02.12.2023 07:40 -1,1 C -1,1 C -1,0 C 95 % 1002,1 hPa 1,0 l/m 0,0 km/h (0 Bft) NW 322 0 min 0,000 mm 0,0 UV-I 0 W/m -1,8 C -1,1 C 0,0 km/h (0 Bft)
02.12.2023 06:40 -0,8 C -0,9 C -0,8 C 95 % 1001,3 hPa 1,0 l/m 0,0 km/h (0 Bft) NW 322 0 min 0,000 mm 0,0 UV-I 0 W/m -1,5 C -0,8 C 0,0 km/h (0 Bft)
02.12.2023 05:40 -0,8 C -0,8 C -0,7 C 95 % 1001,4 hPa 1,4 l/m 0,0 km/h (0 Bft) NW 322 0 min 0,000 mm 0,0 UV-I 0 W/m -1,5 C -0,8 C 0,0 km/h (0 Bft)
02.12.2023 04:40 -0,6 C -0,6 C -0,6 C 95 % 1000,9 hPa 0,8 l/m 0,0 km/h (0 Bft) NW 323 0 min 0,000 mm 0,0 UV-I 0 W/m -1,3 C -0,6 C 0,0 km/h (0 Bft)
02.12.2023 03:40 -0,6 C -0,6 C -0,6 C 95 % 1000,7 hPa 0,6 l/m 0,0 km/h (0 Bft) NW 322 0 min 0,000 mm 0,0 UV-I 0 W/m -1,3 C -0,6 C 0,0 km/h (0 Bft)
02.12.2023 02:40 -0,6 C -0,6 C -0,6 C 95 % 1000,9 hPa 0,4 l/m 0,0 km/h (0 Bft) NW 322 0 min 0,000 mm 0,0 UV-I 0 W/m -1,3 C -0,6 C 0,0 km/h (0 Bft)
02.12.2023 01:40 -0,6 C -0,6 C -0,5 C 95 % 1000,7 hPa 0,8 l/m 0,0 km/h (0 Bft) NW 322 0 min 0,000 mm 0,0 UV-I 0 W/m -1,3 C -0,6 C 0,0 km/h (0 Bft)
02.12.2023 00:40 -0,8 C -0,8 C -0,7 C 95 % 1000,9 hPa 0,2 l/m 0,0 km/h (0 Bft) W-NW 297 0 min 0,000 mm 0,0 UV-I 0 W/m -1,5 C -0,8 C 0,0 km/h (0 Bft)
01.12.2023 23:40 -0,6 C -0,7 C -0,6 C 95 % 1001,2 hPa 0,2 l/m 0,0 km/h (0 Bft) W-NW 297 0 min 0,000 mm 0,0 UV-I 0 W/m -1,3 C -0,6 C 0,0 km/h (0 Bft)
01.12.2023 22:40 -0,3 C -0,4 C -0,3 C 95 % 1001,2 hPa 0,6 l/m 0,0 km/h (0 Bft) N-NW 331 0 min 0,000 mm 0,0 UV-I 0 W/m -1,0 C -0,3 C 0,0 km/h (0 Bft)
01.12.2023 21:40 -0,1 C -0,1 C 0,0 C 95 % 1001,5 hPa 0,2 l/m 0,0 km/h (0 Bft) N-NW 331 0 min 0,000 mm 0,0 UV-I 0 W/m -0,8 C -0,1 C 0,0 km/h (0 Bft)
01.12.2023 20:40 -0,2 C -0,2 C -0,2 C 96 % 1001,3 hPa 0,4 l/m 0,0 km/h (0 Bft) NW 305 0 min 0,000 mm 0,0 UV-I 0 W/m -0,8 C -0,2 C 0,0 km/h (0 Bft)
01.12.2023 19:40 0,1 C 0,1 C 0,1 C 95 % 1001,7 hPa 0,4 l/m 0,0 km/h (0 Bft) NW 307 0 min 0,000 mm 0,0 UV-I 0 W/m -0,6 C 0,1 C 0,0 km/h (0 Bft)
01.12.2023 18:40 0,2 C 0,2 C 0,2 C 95 % 1001,9 hPa 1,0 l/m 0,0 km/h (0 Bft) NW 307 0 min 0,000 mm 0,0 UV-I 0 W/m -0,5 C 0,2 C 0,0 km/h (0 Bft)
01.12.2023 17:40 0,2 C 0,2 C 0,3 C 95 % 1002,0 hPa 0,4 l/m 0,0 km/h (0 Bft) NW 307 0 min 0,000 mm 0,0 UV-I 0 W/m -0,5 C 0,2 C 0,0 km/h (0 Bft)
01.12.2023 17:00 0,3 C 0,2 C 0,3 C 95 % 1001,4 hPa 0,0 l/m 0,0 km/h (0 Bft) NW 307 0 min 0,000 mm 0,0 UV-I 0 W/m -0,4 C 0,3 C 0,0 km/h (0 Bft)
_ Min-Zeit 13:20 13:20 13:30 16:25 04:00 - 17:00 - - - - - - 16:35 13:25 17:00
Minimum _ -1,2 C -1,2 C -1,2 C 93 % 1000,5 hPa - 0,0 km/h (0 Bft) - - - - - - -2,2 C -1,2 C 0,0 km/h (0 Bft)
_ Max-Zeit 17:00 17:00 17:00 19:30 16:40 17:00 17:00 - - 17:00 17:00 17:00 11:20 17:00 17:00 17:00
Maximum _ 0,3 C 0,2 C 0,3 C 96 % 1009,5 hPa 0,2 l/m 0,0 km/h
NW (0 Bft)
- - 0 min 0,000 mm 0,0 UV-I 16 W/m -0,4 C 0,3 C 0,0 km/h
NW (0 Bft)
Durchschnitt _ -0,6 C -0,6 C -0,5 C 95 % 1002,5 hPa #13,8 l/m 0,0 km/h (0 Bft) - - - #0 min. #0,000 mm 0,0 UV-I 8 W/m -1,3 C -0,6 C 0,0 km/h (0 Bft)
Rauscher Max - www.gruenau.tv